sensor_id;sensor_type;location;lat;lon;timestamp;pressure;altitude;pressure_sealevel;temperature;humidity
498;BME280;39559;48.630;9.162;2023-06-24T00:01:04;98334.22;;;12.31;100.00
498;BME280;39559;48.630;9.162;2023-06-24T00:03:30;98320.88;;;12.85;100.00
498;BME280;39559;48.630;9.162;2023-06-24T00:05:57;98330.94;;;12.73;100.00
498;BME280;39559;48.630;9.162;2023-06-24T00:08:22;98333.53;;;12.49;100.00
498;BME280;39559;48.630;9.162;2023-06-24T00:10:48;98329.44;;;12.18;100.00
498;BME280;39559;48.630;9.162;2023-06-24T00:13:18;98330.41;;;12.16;100.00
498;BME280;39559;48.630;9.162;2023-06-24T00:15:44;98325.09;;;12.19;100.00
498;BME280;39559;48.630;9.162;2023-06-24T00:18:10;98334.88;;;12.12;100.00
498;BME280;39559;48.630;9.162;2023-06-24T00:20:36;98331.44;;;12.12;100.00
498;BME280;39559;48.630;9.162;2023-06-24T00:24:59;98336.78;;;12.07;100.00
498;BME280;39559;48.630;9.162;2023-06-24T00:27:25;98337.75;;;12.04;100.00
498;BME280;39559;48.630;9.162;2023-06-24T00:29:51;98344.00;;;11.99;100.00
498;BME280;39559;48.630;9.162;2023-06-24T00:32:17;98343.00;;;12.03;100.00
498;BME280;39559;48.630;9.162;2023-06-24T00:34:42;98339.28;;;12.10;100.00
498;BME280;39559;48.630;9.162;2023-06-24T00:37:09;98336.41;;;11.93;100.00
498;BME280;39559;48.630;9.162;2023-06-24T00:39:35;98343.03;;;12.26;100.00
498;BME280;39559;48.630;9.162;2023-06-24T00:42:01;98338.78;;;12.24;100.00
498;BME280;39559;48.630;9.162;2023-06-24T00:44:27;98340.19;;;11.82;100.00
498;BME280;39559;48.630;9.162;2023-06-24T00:48:56;98336.84;;;11.79;100.00
498;BME280;39559;48.630;9.162;2023-06-24T00:51:22;98339.97;;;11.63;100.00
498;BME280;39559;48.630;9.162;2023-06-24T00:54:01;98338.59;;;11.78;100.00
498;BME280;39559;48.630;9.162;2023-06-24T00:56:34;98335.19;;;11.76;100.00
498;BME280;39559;48.630;9.162;2023-06-24T00:59:04;98337.16;;;11.69;100.00
498;BME280;39559;48.630;9.162;2023-06-24T01:01:33;98336.47;;;11.64;100.00
498;BME280;39559;48.630;9.162;2023-06-24T01:04:02;98336.78;;;11.55;100.00
498;BME280;39559;48.630;9.162;2023-06-24T01:06:28;98330.00;;;11.49;100.00
498;BME280;39559;48.630;9.162;2023-06-24T01:09:01;98336.03;;;11.51;100.00
498;BME280;39559;48.630;9.162;2023-06-24T01:12:52;98332.84;;;11.42;100.00
498;BME280;39559;48.630;9.162;2023-06-24T01:15:18;98328.31;;;11.48;100.00
498;BME280;39559;48.630;9.162;2023-06-24T01:18:10;98328.00;;;11.58;100.00
498;BME280;39559;48.630;9.162;2023-06-24T01:20:58;98322.38;;;11.45;100.00
498;BME280;39559;48.630;9.162;2023-06-24T01:29:09;98327.69;;;11.40;100.00
498;BME280;39559;48.630;9.162;2023-06-24T01:39:27;98326.19;;;11.33;100.00
498;BME280;39559;48.630;9.162;2023-06-24T01:42:06;98333.69;;;11.42;100.00
498;BME280;39559;48.630;9.162;2023-06-24T01:44:33;98342.03;;;11.25;100.00
498;BME280;39559;48.630;9.162;2023-06-24T01:47:02;98339.19;;;11.06;100.00
498;BME280;39559;48.630;9.162;2023-06-24T01:49:31;98336.88;;;10.97;100.00
498;BME280;39559;48.630;9.162;2023-06-24T01:51:59;98331.47;;;11.03;100.00
498;BME280;39559;48.630;9.162;2023-06-24T01:54:28;98321.97;;;11.57;100.00
498;BME280;39559;48.630;9.162;2023-06-24T01:56:57;98326.44;;;11.25;100.00
498;BME280;39559;48.630;9.162;2023-06-24T02:00:44;98325.22;;;11.09;100.00
498;BME280;39559;48.630;9.162;2023-06-24T02:03:11;98328.44;;;10.89;100.00
498;BME280;39559;48.630;9.162;2023-06-24T02:05:38;98333.56;;;10.92;100.00
498;BME280;39559;48.630;9.162;2023-06-24T02:08:08;98330.75;;;10.98;100.00
498;BME280;39559;48.630;9.162;2023-06-24T02:10:38;98334.28;;;10.97;100.00
498;BME280;39559;48.630;9.162;2023-06-24T02:13:05;98330.75;;;10.98;100.00
498;BME280;39559;48.630;9.162;2023-06-24T02:15:31;98328.97;;;11.00;100.00
498;BME280;39559;48.630;9.162;2023-06-24T02:17:59;98329.97;;;10.96;100.00
498;BME280;39559;48.630;9.162;2023-06-24T02:20:28;98330.16;;;10.90;100.00
498;BME280;39559;48.630;9.162;2023-06-24T02:24:42;98324.19;;;10.86;100.00
498;BME280;39559;48.630;9.162;2023-06-24T02:27:11;98319.81;;;10.88;100.00
498;BME280;39559;48.630;9.162;2023-06-24T02:29:39;98317.22;;;10.88;100.00
498;BME280;39559;48.630;9.162;2023-06-24T02:32:06;98311.34;;;10.82;100.00
498;BME280;39559;48.630;9.162;2023-06-24T02:34:33;98316.84;;;10.71;100.00
498;BME280;39559;48.630;9.162;2023-06-24T02:36:59;98323.13;;;10.64;100.00
498;BME280;39559;48.630;9.162;2023-06-24T02:39:25;98320.41;;;10.68;100.00
498;BME280;39559;48.630;9.162;2023-06-24T02:41:52;98326.66;;;10.61;100.00
498;BME280;39559;48.630;9.162;2023-06-24T02:44:19;98324.41;;;10.49;100.00
498;BME280;39559;48.630;9.162;2023-06-24T02:48:38;98329.53;;;10.52;100.00
498;BME280;39559;48.630;9.162;2023-06-24T02:51:07;98321.59;;;10.56;100.00
498;BME280;39559;48.630;9.162;2023-06-24T02:53:37;98316.56;;;10.80;100.00
498;BME280;39559;48.630;9.162;2023-06-24T02:56:03;98315.28;;;11.22;100.00
498;BME280;39559;48.630;9.162;2023-06-24T02:58:30;98316.16;;;10.94;100.00
498;BME280;39559;48.630;9.162;2023-06-24T03:01:01;98317.34;;;10.54;100.00
498;BME280;39559;48.630;9.162;2023-06-24T03:03:29;98317.88;;;10.35;100.00
498;BME280;39559;48.630;9.162;2023-06-24T03:05:56;98322.31;;;10.30;100.00
498;BME280;39559;48.630;9.162;2023-06-24T03:08:25;98319.72;;;10.30;100.00
498;BME280;39559;48.630;9.162;2023-06-24T03:15:43;98318.72;;;10.36;100.00
498;BME280;39559;48.630;9.162;2023-06-24T03:18:09;98330.97;;;10.31;100.00
498;BME280;39559;48.630;9.162;2023-06-24T03:20:36;98331.22;;;10.22;100.00
498;BME280;39559;48.630;9.162;2023-06-24T03:23:08;98333.81;;;10.22;100.00
498;BME280;39559;48.630;9.162;2023-06-24T03:25:35;98343.09;;;10.32;100.00
498;BME280;39559;48.630;9.162;2023-06-24T03:28:02;98344.84;;;10.30;100.00
498;BME280;39559;48.630;9.162;2023-06-24T03:30:30;98350.72;;;10.36;100.00
498;BME280;39559;48.630;9.162;2023-06-24T03:32:57;98355.66;;;10.46;100.00
498;BME280;39559;48.630;9.162;2023-06-24T03:36:31;98362.84;;;10.37;100.00
498;BME280;39559;48.630;9.162;2023-06-24T03:39:00;98360.50;;;10.27;100.00
498;BME280;39559;48.630;9.162;2023-06-24T03:41:25;98354.50;;;10.25;100.00
498;BME280;39559;48.630;9.162;2023-06-24T03:43:51;98350.16;;;10.25;100.00
498;BME280;39559;48.630;9.162;2023-06-24T03:46:18;98362.41;;;10.20;100.00
498;BME280;39559;48.630;9.162;2023-06-24T03:48:44;98357.84;;;10.28;100.00
498;BME280;39559;48.630;9.162;2023-06-24T03:51:09;98365.09;;;10.17;100.00
498;BME280;39559;48.630;9.162;2023-06-24T03:53:35;98362.44;;;10.18;100.00
498;BME280;39559;48.630;9.162;2023-06-24T03:56:00;98368.38;;;10.22;100.00
498;BME280;39559;48.630;9.162;2023-06-24T04:00:29;98367.94;;;10.41;100.00
498;BME280;39559;48.630;9.162;2023-06-24T04:02:55;98369.00;;;10.33;100.00
498;BME280;39559;48.630;9.162;2023-06-24T04:05:20;98368.13;;;10.33;100.00
498;BME280;39559;48.630;9.162;2023-06-24T04:07:49;98375.78;;;10.39;100.00
498;BME280;39559;48.630;9.162;2023-06-24T04:10:16;98380.16;;;10.37;100.00
498;BME280;39559;48.630;9.162;2023-06-24T04:12:42;98380.44;;;10.57;100.00
498;BME280;39559;48.630;9.162;2023-06-24T04:15:08;98391.03;;;10.51;100.00
498;BME280;39559;48.630;9.162;2023-06-24T04:17:33;98394.63;;;10.46;100.00
498;BME280;39559;48.630;9.162;2023-06-24T04:19:59;98401.59;;;10.44;100.00
498;BME280;39559;48.630;9.162;2023-06-24T04:24:25;98393.41;;;10.59;100.00
498;BME280;39559;48.630;9.162;2023-06-24T04:26:51;98397.78;;;10.57;100.00
498;BME280;39559;48.630;9.162;2023-06-24T04:29:16;98391.94;;;10.49;100.00
498;BME280;39559;48.630;9.162;2023-06-24T04:31:42;98391.94;;;10.49;100.00
498;BME280;39559;48.630;9.162;2023-06-24T04:34:07;98395.28;;;10.54;100.00
498;BME280;39559;48.630;9.162;2023-06-24T04:36:33;98396.13;;;10.54;100.00
498;BME280;39559;48.630;9.162;2023-06-24T04:39:01;98398.63;;;10.57;100.00
498;BME280;39559;48.630;9.162;2023-06-24T04:41:27;98394.13;;;10.64;100.00
498;BME280;39559;48.630;9.162;2023-06-24T04:43:53;98396.63;;;10.67;100.00
498;BME280;39559;48.630;9.162;2023-06-24T04:48:24;98402.19;;;10.85;100.00
498;BME280;39559;48.630;9.162;2023-06-24T04:50:50;98401.16;;;10.90;100.00
498;BME280;39559;48.630;9.162;2023-06-24T04:53:15;98405.38;;;10.94;100.00
498;BME280;39559;48.630;9.162;2023-06-24T04:55:41;98399.13;;;11.00;100.00
498;BME280;39559;48.630;9.162;2023-06-24T04:58:06;98397.25;;;11.05;100.00
498;BME280;39559;48.630;9.162;2023-06-24T05:00:32;98401.19;;;11.19;100.00
498;BME280;39559;48.630;9.162;2023-06-24T05:02:58;98405.63;;;11.15;100.00
498;BME280;39559;48.630;9.162;2023-06-24T05:05:23;98401.19;;;11.19;100.00
498;BME280;39559;48.630;9.162;2023-06-24T05:07:49;98393.72;;;11.36;100.00
498;BME280;39559;48.630;9.162;2023-06-24T05:12:19;98403.53;;;11.28;100.00
498;BME280;39559;48.630;9.162;2023-06-24T05:14:49;98404.28;;;11.31;100.00
498;BME280;39559;48.630;9.162;2023-06-24T05:17:15;98414.44;;;11.39;100.00
498;BME280;39559;48.630;9.162;2023-06-24T05:19:41;98414.25;;;11.45;100.00
498;BME280;39559;48.630;9.162;2023-06-24T05:22:06;98416.47;;;11.58;100.00
498;BME280;39559;48.630;9.162;2023-06-24T05:24:32;98413.59;;;11.65;100.00
498;BME280;39559;48.630;9.162;2023-06-24T05:27:03;98407.22;;;11.76;100.00
498;BME280;39559;48.630;9.162;2023-06-24T05:29:30;98406.91;;;11.85;100.00
498;BME280;39559;48.630;9.162;2023-06-24T05:31:55;98404.03;;;11.94;100.00
498;BME280;39559;48.630;9.162;2023-06-24T05:36:17;98408.56;;;12.14;100.00
498;BME280;39559;48.630;9.162;2023-06-24T05:38:42;98406.53;;;12.22;100.00
498;BME280;39559;48.630;9.162;2023-06-24T05:41:08;98402.03;;;12.27;100.00
498;BME280;39559;48.630;9.162;2023-06-24T05:43:33;98406.81;;;12.40;100.00
498;BME280;39559;48.630;9.162;2023-06-24T05:45:59;98404.72;;;12.49;100.00
498;BME280;39559;48.630;9.162;2023-06-24T05:48:24;98398.38;;;12.57;100.00
498;BME280;39559;48.630;9.162;2023-06-24T05:50:50;98392.00;;;12.65;100.00
498;BME280;39559;48.630;9.162;2023-06-24T05:53:15;98399.38;;;12.78;100.00
498;BME280;39559;48.630;9.162;2023-06-24T05:55:41;98394.59;;;12.89;100.00
498;BME280;39559;48.630;9.162;2023-06-24T06:00:14;98398.66;;;13.20;100.00
498;BME280;39559;48.630;9.162;2023-06-24T06:02:40;98409.50;;;13.33;100.00
498;BME280;39559;48.630;9.162;2023-06-24T06:05:07;98409.19;;;13.40;100.00
498;BME280;39559;48.630;9.162;2023-06-24T06:07:33;98406.22;;;13.50;100.00
498;BME280;39559;48.630;9.162;2023-06-24T06:09:59;98407.56;;;13.60;100.00
498;BME280;39559;48.630;9.162;2023-06-24T06:12:25;98399.13;;;13.75;100.00
498;BME280;39559;48.630;9.162;2023-06-24T06:14:51;98400.31;;;14.09;100.00
498;BME280;39559;48.630;9.162;2023-06-24T06:17:16;98395.94;;;14.10;100.00
498;BME280;39559;48.630;9.162;2023-06-24T06:19:42;98397.06;;;14.25;100.00
498;BME280;39559;48.630;9.162;2023-06-24T06:24:15;98393.50;;;15.06;100.00
498;BME280;39559;48.630;9.162;2023-06-24T06:26:43;98385.00;;;15.01;100.00
498;BME280;39559;48.630;9.162;2023-06-24T06:29:12;98381.59;;;15.18;100.00
498;BME280;39559;48.630;9.162;2023-06-24T06:31:38;98385.91;;;15.19;100.00
498;BME280;39559;48.630;9.162;2023-06-24T06:34:04;98390.09;;;15.23;100.00
498;BME280;39559;48.630;9.162;2023-06-24T06:36:30;98389.66;;;15.32;100.00
498;BME280;39559;48.630;9.162;2023-06-24T06:38:56;98386.59;;;15.42;100.00
498;BME280;39559;48.630;9.162;2023-06-24T06:41:21;98379.81;;;15.74;100.00
498;BME280;39559;48.630;9.162;2023-06-24T06:43:53;98381.59;;;15.91;100.00
498;BME280;39559;48.630;9.162;2023-06-24T06:48:17;98386.22;;;16.03;100.00
498;BME280;39559;48.630;9.162;2023-06-24T06:50:44;98381.75;;;16.23;100.00
498;BME280;39559;48.630;9.162;2023-06-24T06:53:11;98381.69;;;16.58;100.00
498;BME280;39559;48.630;9.162;2023-06-24T06:55:37;98379.06;;;16.58;100.00
498;BME280;39559;48.630;9.162;2023-06-24T06:58:08;98384.38;;;16.74;100.00
498;BME280;39559;48.630;9.162;2023-06-24T07:00:33;98377.47;;;16.88;100.00
498;BME280;39559;48.630;9.162;2023-06-24T07:02:59;98375.03;;;17.01;100.00
498;BME280;39559;48.630;9.162;2023-06-24T07:05:24;98376.88;;;17.15;100.00
498;BME280;39559;48.630;9.162;2023-06-24T07:07:50;98369.53;;;17.22;100.00
498;BME280;39559;48.630;9.162;2023-06-24T07:12:07;98378.06;;;17.25;100.00
498;BME280;39559;48.630;9.162;2023-06-24T07:14:32;98374.09;;;17.80;100.00
498;BME280;39559;48.630;9.162;2023-06-24T07:16:58;98380.84;;;18.00;98.34
498;BME280;39559;48.630;9.162;2023-06-24T07:19:23;98380.38;;;18.38;92.79
498;BME280;39559;48.630;9.162;2023-06-24T07:21:49;98376.72;;;18.84;84.22
498;BME280;39559;48.630;9.162;2023-06-24T07:24:15;98375.69;;;19.01;85.63
498;BME280;39559;48.630;9.162;2023-06-24T07:26:40;98364.84;;;19.20;81.16
498;BME280;39559;48.630;9.162;2023-06-24T07:29:06;98376.03;;;19.24;83.38
498;BME280;39559;48.630;9.162;2023-06-24T07:31:33;98371.97;;;19.60;83.23
498;BME280;39559;48.630;9.162;2023-06-24T07:36:04;98367.38;;;20.03;76.85
498;BME280;39559;48.630;9.162;2023-06-24T07:38:29;98370.75;;;20.05;76.87
498;BME280;39559;48.630;9.162;2023-06-24T07:40:55;98362.31;;;20.13;76.48
498;BME280;39559;48.630;9.162;2023-06-24T07:43:21;98362.22;;;20.27;73.81
498;BME280;39559;48.630;9.162;2023-06-24T07:45:46;98370.31;;;20.24;75.12
498;BME280;39559;48.630;9.162;2023-06-24T07:48:12;98361.56;;;20.11;74.68
498;BME280;39559;48.630;9.162;2023-06-24T07:50:38;98364.00;;;20.14;72.61
498;BME280;39559;48.630;9.162;2023-06-24T07:53:04;98360.31;;;20.55;72.88
498;BME280;39559;48.630;9.162;2023-06-24T07:55:30;98361.28;;;20.80;72.07
498;BME280;39559;48.630;9.162;2023-06-24T08:00:01;98361.47;;;20.77;67.96
498;BME280;39559;48.630;9.162;2023-06-24T08:02:26;98355.53;;;20.99;66.78
498;BME280;39559;48.630;9.162;2023-06-24T08:04:52;98357.47;;;20.58;66.28
498;BME280;39559;48.630;9.162;2023-06-24T08:07:18;98359.03;;;20.74;68.42
498;BME280;39559;48.630;9.162;2023-06-24T08:09:43;98353.19;;;21.07;67.95
498;BME280;39559;48.630;9.162;2023-06-24T08:12:09;98361.19;;;21.42;67.04
498;BME280;39559;48.630;9.162;2023-06-24T08:14:35;98360.78;;;21.49;66.50
498;BME280;39559;48.630;9.162;2023-06-24T08:17:01;98346.00;;;21.09;69.61
498;BME280;39559;48.630;9.162;2023-06-24T08:19:27;98354.38;;;21.27;65.21
498;BME280;39559;48.630;9.162;2023-06-24T08:23:58;98349.00;;;20.53;70.39
498;BME280;39559;48.630;9.162;2023-06-24T08:26:24;98345.63;;;20.51;69.55
498;BME280;39559;48.630;9.162;2023-06-24T08:28:49;98352.00;;;20.74;69.75
498;BME280;39559;48.630;9.162;2023-06-24T08:31:15;98341.53;;;20.73;69.12
498;BME280;39559;48.630;9.162;2023-06-24T08:33:44;98340.69;;;20.72;69.14
498;BME280;39559;48.630;9.162;2023-06-24T08:36:13;98338.19;;;21.32;67.13
498;BME280;39559;48.630;9.162;2023-06-24T08:38:39;98344.13;;;21.59;68.38
498;BME280;39559;48.630;9.162;2023-06-24T08:41:04;98342.41;;;20.97;72.76
498;BME280;39559;48.630;9.162;2023-06-24T08:43:30;98340.59;;;21.11;66.47
498;BME280;39559;48.630;9.162;2023-06-24T08:47:55;98344.00;;;21.61;63.03
498;BME280;39559;48.630;9.162;2023-06-24T08:50:23;98338.13;;;22.04;62.89
498;BME280;39559;48.630;9.162;2023-06-24T08:52:52;98336.50;;;22.26;60.77
498;BME280;39559;48.630;9.162;2023-06-24T08:55:22;98329.59;;;22.00;62.35
498;BME280;39559;48.630;9.162;2023-06-24T08:57:48;98330.47;;;22.12;61.81
498;BME280;39559;48.630;9.162;2023-06-24T09:00:14;98328.16;;;22.08;61.74
498;BME280;39559;48.630;9.162;2023-06-24T09:02:42;98327.31;;;21.96;58.48
498;BME280;39559;48.630;9.162;2023-06-24T09:05:08;98327.88;;;21.88;59.76
498;BME280;39559;48.630;9.162;2023-06-24T09:07:34;98328.78;;;22.22;59.98
498;BME280;39559;48.630;9.162;2023-06-24T09:11:59;98331.91;;;22.05;59.72
498;BME280;39559;48.630;9.162;2023-06-24T09:14:26;98329.38;;;22.15;57.59
498;BME280;39559;48.630;9.162;2023-06-24T09:17:00;98322.59;;;21.88;58.77
498;BME280;39559;48.630;9.162;2023-06-24T09:19:28;98323.09;;;22.04;58.10
498;BME280;39559;48.630;9.162;2023-06-24T09:22:09;98325.31;;;21.75;58.42
498;BME280;39559;48.630;9.162;2023-06-24T09:24:46;98315.53;;;22.00;58.69
498;BME280;39559;48.630;9.162;2023-06-24T09:27:13;98320.97;;;22.10;57.39
498;BME280;39559;48.630;9.162;2023-06-24T09:30:17;98316.81;;;22.41;59.67
498;BME280;39559;48.630;9.162;2023-06-24T09:32:45;98304.75;;;22.26;56.99
498;BME280;39559;48.630;9.162;2023-06-24T09:35:52;98304.66;;;22.38;54.17
498;BME280;39559;48.630;9.162;2023-06-24T09:38:36;98298.50;;;22.72;52.98
498;BME280;39559;48.630;9.162;2023-06-24T09:41:03;98304.81;;;22.59;50.16
498;BME280;39559;48.630;9.162;2023-06-24T09:43:30;98300.69;;;22.44;51.96
498;BME280;39559;48.630;9.162;2023-06-24T09:46:00;98298.88;;;22.45;52.79
498;BME280;39559;48.630;9.162;2023-06-24T09:48:26;98294.19;;;22.82;52.80
498;BME280;39559;48.630;9.162;2023-06-24T09:50:52;98293.00;;;22.64;54.00
498;BME280;39559;48.630;9.162;2023-06-24T09:53:18;98289.44;;;22.97;49.61
498;BME280;39559;48.630;9.162;2023-06-24T09:55:45;98280.94;;;22.82;54.39
498;BME280;39559;48.630;9.162;2023-06-24T09:59:45;98288.28;;;23.33;50.25
498;BME280;39559;48.630;9.162;2023-06-24T10:02:14;98278.31;;;23.26;50.17
498;BME280;39559;48.630;9.162;2023-06-24T10:04:40;98274.31;;;23.31;52.02
498;BME280;39559;48.630;9.162;2023-06-24T10:07:07;98266.13;;;23.34;49.90
498;BME280;39559;48.630;9.162;2023-06-24T10:09:33;98273.88;;;23.26;50.05
498;BME280;39559;48.630;9.162;2023-06-24T10:11:58;98276.69;;;23.02;51.17
498;BME280;39559;48.630;9.162;2023-06-24T10:14:25;98267.72;;;23.26;48.77
498;BME280;39559;48.630;9.162;2023-06-24T10:16:51;98267.50;;;23.50;51.96
498;BME280;39559;48.630;9.162;2023-06-24T10:19:20;98257.81;;;23.60;50.07
498;BME280;39559;48.630;9.162;2023-06-24T10:26:10;98268.31;;;23.83;50.50
498;BME280;39559;48.630;9.162;2023-06-24T10:36:57;98253.06;;;23.96;47.56
498;BME280;39559;48.630;9.162;2023-06-24T10:39:46;98259.94;;;23.66;45.38
498;BME280;39559;48.630;9.162;2023-06-24T10:42:37;98259.03;;;23.77;47.64
498;BME280;39559;48.630;9.162;2023-06-24T10:47:39;98247.56;;;23.88;48.22
498;BME280;39559;48.630;9.162;2023-06-24T10:50:06;98242.47;;;24.37;44.44
498;BME280;39559;48.630;9.162;2023-06-24T10:52:32;98227.69;;;24.34;44.78
498;BME280;39559;48.630;9.162;2023-06-24T10:55:00;98230.03;;;24.37;43.78
498;BME280;39559;48.630;9.162;2023-06-24T10:57:27;98231.69;;;24.28;45.39
498;BME280;39559;48.630;9.162;2023-06-24T10:59:57;98222.06;;;23.97;45.35
498;BME280;39559;48.630;9.162;2023-06-24T11:02:25;98221.94;;;24.29;44.03
498;BME280;39559;48.630;9.162;2023-06-24T11:05:00;98221.44;;;24.14;42.76
498;BME280;39559;48.630;9.162;2023-06-24T11:07:33;98218.16;;;24.31;42.03
498;BME280;39559;48.630;9.162;2023-06-24T11:11:34;98216.16;;;23.51;44.10
498;BME280;39559;48.630;9.162;2023-06-24T11:14:00;98206.53;;;23.92;46.05
498;BME280;39559;48.630;9.162;2023-06-24T11:16:25;98208.00;;;24.06;41.54
498;BME280;39559;48.630;9.162;2023-06-24T11:18:51;98210.84;;;24.14;44.86
498;BME280;39559;48.630;9.162;2023-06-24T11:21:17;98203.47;;;24.68;44.31
498;BME280;39559;48.630;9.162;2023-06-24T11:23:42;98202.38;;;25.19;42.62
498;BME280;39559;48.630;9.162;2023-06-24T11:26:08;98198.91;;;25.48;41.22
498;BME280;39559;48.630;9.162;2023-06-24T11:28:33;98189.56;;;25.24;39.48
498;BME280;39559;48.630;9.162;2023-06-24T11:31:06;98192.63;;;25.29;41.93
498;BME280;39559;48.630;9.162;2023-06-24T11:35:28;98192.47;;;25.21;38.34
498;BME280;39559;48.630;9.162;2023-06-24T11:37:58;98187.28;;;25.10;40.61
498;BME280;39559;48.630;9.162;2023-06-24T11:40:24;98184.50;;;25.21;39.89
498;BME280;39559;48.630;9.162;2023-06-24T11:42:50;98176.66;;;25.10;41.44
498;BME280;39559;48.630;9.162;2023-06-24T11:45:20;98180.72;;;25.14;38.79
498;BME280;39559;48.630;9.162;2023-06-24T11:47:45;98170.50;;;24.80;38.47
498;BME280;39559;48.630;9.162;2023-06-24T11:50:11;98171.34;;;24.90;40.56
498;BME280;39559;48.630;9.162;2023-06-24T11:52:43;98167.41;;;24.85;40.48
498;BME280;39559;48.630;9.162;2023-06-24T11:55:27;98157.47;;;25.36;41.07
498;BME280;39559;48.630;9.162;2023-06-24T11:59:23;98158.47;;;25.44;41.83
498;BME280;39559;48.630;9.162;2023-06-24T12:01:59;98154.06;;;25.63;39.17
498;BME280;39559;48.630;9.162;2023-06-24T12:04:29;98160.28;;;25.91;39.45
498;BME280;39559;48.630;9.162;2023-06-24T12:06:55;98147.75;;;25.74;39.07
498;BME280;39559;48.630;9.162;2023-06-24T12:09:21;98147.72;;;25.93;40.23
498;BME280;39559;48.630;9.162;2023-06-24T12:11:46;98145.91;;;25.84;38.50
498;BME280;39559;48.630;9.162;2023-06-24T12:14:12;98141.50;;;26.02;37.95
498;BME280;39559;48.630;9.162;2023-06-24T12:16:40;98126.63;;;26.10;38.52
498;BME280;39559;48.630;9.162;2023-06-24T12:19:07;98131.13;;;26.09;37.12
498;BME280;39559;48.630;9.162;2023-06-24T12:23:19;98133.06;;;25.70;41.39
498;BME280;39559;48.630;9.162;2023-06-24T12:25:45;98127.56;;;25.81;36.64
498;BME280;39559;48.630;9.162;2023-06-24T12:28:10;98118.56;;;26.01;37.00
498;BME280;39559;48.630;9.162;2023-06-24T12:30:36;98115.63;;;26.22;39.23
498;BME280;39559;48.630;9.162;2023-06-24T12:33:02;98119.47;;;26.56;34.29
498;BME280;39559;48.630;9.162;2023-06-24T12:35:28;98123.66;;;26.40;36.24
498;BME280;39559;48.630;9.162;2023-06-24T12:37:54;98116.09;;;26.36;37.94
498;BME280;39559;48.630;9.162;2023-06-24T12:40:19;98108.84;;;26.28;35.78
498;BME280;39559;48.630;9.162;2023-06-24T12:42:45;98115.88;;;26.01;35.34
498;BME280;39559;48.630;9.162;2023-06-24T12:47:21;98111.31;;;26.39;36.68
498;BME280;39559;48.630;9.162;2023-06-24T12:49:48;98105.94;;;26.03;36.24
498;BME280;39559;48.630;9.162;2023-06-24T12:52:15;98102.34;;;26.40;35.81
498;BME280;39559;48.630;9.162;2023-06-24T12:54:40;98100.94;;;26.64;35.83
498;BME280;39559;48.630;9.162;2023-06-24T12:57:06;98096.19;;;26.40;34.21
498;BME280;39559;48.630;9.162;2023-06-24T12:59:32;98087.16;;;26.23;37.35
498;BME280;39559;48.630;9.162;2023-06-24T13:01:58;98091.22;;;26.27;35.41
498;BME280;39559;48.630;9.162;2023-06-24T13:04:23;98091.50;;;26.24;34.65
498;BME280;39559;48.630;9.162;2023-06-24T13:06:56;98086.78;;;26.81;34.84
498;BME280;39559;48.630;9.162;2023-06-24T13:11:07;98071.63;;;27.26;33.79
498;BME280;39559;48.630;9.162;2023-06-24T13:13:32;98074.47;;;27.07;33.47
498;BME280;39559;48.630;9.162;2023-06-24T13:15:58;98073.13;;;26.85;35.63
498;BME280;39559;48.630;9.162;2023-06-24T13:18:23;98067.41;;;26.97;35.43
498;BME280;39559;48.630;9.162;2023-06-24T13:20:49;98078.03;;;26.71;38.22
498;BME280;39559;48.630;9.162;2023-06-24T13:23:14;98074.88;;;26.58;40.50
498;BME280;39559;48.630;9.162;2023-06-24T13:25:40;98086.53;;;26.93;35.08
498;BME280;39559;48.630;9.162;2023-06-24T13:28:05;98072.47;;;26.65;34.24
498;BME280;39559;48.630;9.162;2023-06-24T13:30:31;98073.66;;;26.34;36.36
498;BME280;39559;48.630;9.162;2023-06-24T13:35:00;98056.16;;;26.86;37.20
498;BME280;39559;48.630;9.162;2023-06-24T13:37:25;98057.91;;;26.95;36.68
498;BME280;39559;48.630;9.162;2023-06-24T13:39:51;98059.38;;;27.15;37.36
498;BME280;39559;48.630;9.162;2023-06-24T13:42:17;98052.56;;;27.21;36.07
498;BME280;39559;48.630;9.162;2023-06-24T13:44:42;98056.84;;;26.88;36.14
498;BME280;39559;48.630;9.162;2023-06-24T13:47:09;98056.69;;;26.53;37.63
498;BME280;39559;48.630;9.162;2023-06-24T13:49:35;98053.91;;;26.99;36.80
498;BME280;39559;48.630;9.162;2023-06-24T13:52:00;98043.50;;;26.88;37.80
498;BME280;39559;48.630;9.162;2023-06-24T13:54:26;98049.06;;;26.40;39.03
498;BME280;39559;48.630;9.162;2023-06-24T13:58:57;98043.69;;;27.12;36.98
498;BME280;39559;48.630;9.162;2023-06-24T14:01:22;98039.41;;;26.75;36.57
498;BME280;39559;48.630;9.162;2023-06-24T14:03:49;98044.00;;;26.65;35.17
498;BME280;39559;48.630;9.162;2023-06-24T14:06:17;98043.38;;;26.89;36.14
498;BME280;39559;48.630;9.162;2023-06-24T14:08:44;98034.22;;;26.74;35.48
498;BME280;39559;48.630;9.162;2023-06-24T14:11:10;98046.00;;;27.07;34.95
498;BME280;39559;48.630;9.162;2023-06-24T14:13:36;98042.19;;;26.92;35.71
498;BME280;39559;48.630;9.162;2023-06-24T14:16:03;98038.81;;;27.08;34.82
498;BME280;39559;48.630;9.162;2023-06-24T14:18:29;98038.31;;;27.04;36.73
498;BME280;39559;48.630;9.162;2023-06-24T14:22:46;98028.16;;;26.81;35.00
498;BME280;39559;48.630;9.162;2023-06-24T14:25:12;98026.16;;;26.48;35.56
498;BME280;39559;48.630;9.162;2023-06-24T14:27:38;98021.38;;;26.69;35.49
498;BME280;39559;48.630;9.162;2023-06-24T14:30:04;98020.72;;;26.93;35.89
498;BME280;39559;48.630;9.162;2023-06-24T14:32:30;98020.47;;;27.05;36.90
498;BME280;39559;48.630;9.162;2023-06-24T14:34:56;98019.41;;;26.97;35.20
498;BME280;39559;48.630;9.162;2023-06-24T14:37:22;98018.16;;;27.10;35.31
498;BME280;39559;48.630;9.162;2023-06-24T14:39:47;98016.19;;;26.86;37.02
498;BME280;39559;48.630;9.162;2023-06-24T14:42:13;98012.84;;;26.84;36.78
498;BME280;39559;48.630;9.162;2023-06-24T14:46:48;98008.88;;;26.88;37.13
498;BME280;39559;48.630;9.162;2023-06-24T14:49:14;98002.28;;;27.00;36.25
498;BME280;39559;48.630;9.162;2023-06-24T14:51:39;98003.72;;;27.12;37.73